sensor_id;sensor_type;location;lat;lon;timestamp;temperature;humidity
82243;DHT22;71844;51.528;4.442;2024-03-29T00:01:26;9.70;59.80
82243;DHT22;71844;51.528;4.442;2024-03-29T00:03:55;9.70;59.70
82243;DHT22;71844;51.528;4.442;2024-03-29T00:06:21;9.70;59.70
82243;DHT22;71844;51.528;4.442;2024-03-29T00:08:47;9.70;59.80
82243;DHT22;71844;51.528;4.442;2024-03-29T00:11:13;9.70;59.80
82243;DHT22;71844;51.528;4.442;2024-03-29T00:13:39;9.70;59.90
82243;DHT22;71844;51.528;4.442;2024-03-29T00:16:06;9.70;59.90
82243;DHT22;71844;51.528;4.442;2024-03-29T00:18:32;9.70;59.80
82243;DHT22;71844;51.528;4.442;2024-03-29T00:20:58;9.80;59.80
82243;DHT22;71844;51.528;4.442;2024-03-29T00:23:23;9.70;59.80
82243;DHT22;71844;51.528;4.442;2024-03-29T00:25:49;9.80;59.80
82243;DHT22;71844;51.528;4.442;2024-03-29T00:28:15;9.70;59.80
82243;DHT22;71844;51.528;4.442;2024-03-29T00:30:41;9.70;59.70
82243;DHT22;71844;51.528;4.442;2024-03-29T00:33:07;9.70;59.60
82243;DHT22;71844;51.528;4.442;2024-03-29T00:35:33;9.70;59.60
82243;DHT22;71844;51.528;4.442;2024-03-29T00:37:59;9.70;59.60
82243;DHT22;71844;51.528;4.442;2024-03-29T00:40:25;9.70;59.60
82243;DHT22;71844;51.528;4.442;2024-03-29T00:42:51;9.70;59.60
82243;DHT22;71844;51.528;4.442;2024-03-29T00:45:17;9.60;59.70
82243;DHT22;71844;51.528;4.442;2024-03-29T00:47:43;9.60;59.90
82243;DHT22;71844;51.528;4.442;2024-03-29T00:50:09;9.60;59.90
82243;DHT22;71844;51.528;4.442;2024-03-29T00:52:35;9.60;59.90
82243;DHT22;71844;51.528;4.442;2024-03-29T00:55:02;9.60;59.90
82243;DHT22;71844;51.528;4.442;2024-03-29T00:57:29;9.50;60.00
82243;DHT22;71844;51.528;4.442;2024-03-29T00:59:55;9.50;60.00
82243;DHT22;71844;51.528;4.442;2024-03-29T01:02:23;9.50;60.10
82243;DHT22;71844;51.528;4.442;2024-03-29T01:04:49;9.50;60.00
82243;DHT22;71844;51.528;4.442;2024-03-29T01:07:15;9.50;60.10
82243;DHT22;71844;51.528;4.442;2024-03-29T01:09:43;9.50;60.10
82243;DHT22;71844;51.528;4.442;2024-03-29T01:12:09;9.50;60.10
82243;DHT22;71844;51.528;4.442;2024-03-29T01:14:38;9.50;60.10
82243;DHT22;71844;51.528;4.442;2024-03-29T01:17:04;9.40;60.10
82243;DHT22;71844;51.528;4.442;2024-03-29T01:19:32;9.40;60.30
82243;DHT22;71844;51.528;4.442;2024-03-29T01:21:58;9.40;60.30
82243;DHT22;71844;51.528;4.442;2024-03-29T01:24:24;9.40;60.30
82243;DHT22;71844;51.528;4.442;2024-03-29T01:26:57;9.30;60.40
82243;DHT22;71844;51.528;4.442;2024-03-29T01:29:24;9.30;60.50
82243;DHT22;71844;51.528;4.442;2024-03-29T01:31:50;9.30;60.40
82243;DHT22;71844;51.528;4.442;2024-03-29T01:34:16;9.30;60.40
82243;DHT22;71844;51.528;4.442;2024-03-29T01:36:42;9.30;60.50
82243;DHT22;71844;51.528;4.442;2024-03-29T01:39:08;9.20;60.40
82243;DHT22;71844;51.528;4.442;2024-03-29T01:41:36;9.20;60.60
82243;DHT22;71844;51.528;4.442;2024-03-29T01:44:01;9.20;60.60
82243;DHT22;71844;51.528;4.442;2024-03-29T01:46:28;9.20;60.60
82243;DHT22;71844;51.528;4.442;2024-03-29T01:48:54;9.20;60.60
82243;DHT22;71844;51.528;4.442;2024-03-29T01:51:21;9.20;60.70
82243;DHT22;71844;51.528;4.442;2024-03-29T01:53:50;9.20;60.60
82243;DHT22;71844;51.528;4.442;2024-03-29T01:56:17;9.30;60.60
82243;DHT22;71844;51.528;4.442;2024-03-29T01:58:44;9.30;60.60
82243;DHT22;71844;51.528;4.442;2024-03-29T02:01:11;9.20;60.60
82243;DHT22;71844;51.528;4.442;2024-03-29T02:03:39;9.20;60.60
82243;DHT22;71844;51.528;4.442;2024-03-29T02:06:06;9.30;60.60
82243;DHT22;71844;51.528;4.442;2024-03-29T02:08:33;9.30;60.60
82243;DHT22;71844;51.528;4.442;2024-03-29T02:10:59;9.30;60.60
82243;DHT22;71844;51.528;4.442;2024-03-29T02:13:26;9.30;60.60
82243;DHT22;71844;51.528;4.442;2024-03-29T02:15:52;9.30;60.50
82243;DHT22;71844;51.528;4.442;2024-03-29T02:18:18;9.30;60.50
82243;DHT22;71844;51.528;4.442;2024-03-29T02:20:44;9.40;60.50
82243;DHT22;71844;51.528;4.442;2024-03-29T02:23:37;9.40;60.50
82243;DHT22;71844;51.528;4.442;2024-03-29T02:26:03;9.40;60.50
82243;DHT22;71844;51.528;4.442;2024-03-29T02:28:30;9.40;60.30
82243;DHT22;71844;51.528;4.442;2024-03-29T02:30:56;9.50;60.10
82243;DHT22;71844;51.528;4.442;2024-03-29T02:33:22;9.50;60.10
82243;DHT22;71844;51.528;4.442;2024-03-29T02:35:48;9.50;60.10
82243;DHT22;71844;51.528;4.442;2024-03-29T02:38:14;9.60;60.00
82243;DHT22;71844;51.528;4.442;2024-03-29T02:40:41;9.60;60.00
82243;DHT22;71844;51.528;4.442;2024-03-29T02:43:07;9.60;59.90
82243;DHT22;71844;51.528;4.442;2024-03-29T02:45:33;9.60;59.90
82243;DHT22;71844;51.528;4.442;2024-03-29T02:47:59;9.60;59.90
82243;DHT22;71844;51.528;4.442;2024-03-29T02:50:25;9.60;59.90
82243;DHT22;71844;51.528;4.442;2024-03-29T02:52:50;9.60;59.90
82243;DHT22;71844;51.528;4.442;2024-03-29T02:55:16;9.70;59.90
82243;DHT22;71844;51.528;4.442;2024-03-29T02:57:42;9.60;59.90
82243;DHT22;71844;51.528;4.442;2024-03-29T03:00:08;9.60;60.00
82243;DHT22;71844;51.528;4.442;2024-03-29T03:02:38;9.70;60.00
82243;DHT22;71844;51.528;4.442;2024-03-29T03:05:05;9.60;60.00
82243;DHT22;71844;51.528;4.442;2024-03-29T03:07:31;9.60;60.20
82243;DHT22;71844;51.528;4.442;2024-03-29T03:10:15;9.60;60.00
82243;DHT22;71844;51.528;4.442;2024-03-29T03:13:00;9.60;60.00
82243;DHT22;71844;51.528;4.442;2024-03-29T03:15:26;9.60;59.90
82243;DHT22;71844;51.528;4.442;2024-03-29T03:17:51;9.60;60.00
82243;DHT22;71844;51.528;4.442;2024-03-29T03:20:17;9.60;60.00
82243;DHT22;71844;51.528;4.442;2024-03-29T03:22:45;9.60;60.10
82243;DHT22;71844;51.528;4.442;2024-03-29T03:25:13;9.60;60.10
82243;DHT22;71844;51.528;4.442;2024-03-29T03:27:39;9.60;60.20
82243;DHT22;71844;51.528;4.442;2024-03-29T03:30:06;9.60;60.30
82243;DHT22;71844;51.528;4.442;2024-03-29T03:32:35;9.50;60.80
82243;DHT22;71844;51.528;4.442;2024-03-29T03:35:01;9.50;61.30
82243;DHT22;71844;51.528;4.442;2024-03-29T03:37:27;9.40;61.50
82243;DHT22;71844;51.528;4.442;2024-03-29T03:39:52;9.30;61.90
82243;DHT22;71844;51.528;4.442;2024-03-29T03:42:18;9.10;62.50
82243;DHT22;71844;51.528;4.442;2024-03-29T03:44:44;9.00;63.60
82243;DHT22;71844;51.528;4.442;2024-03-29T03:47:10;8.90;65.00
82243;DHT22;71844;51.528;4.442;2024-03-29T03:49:36;8.70;65.00
82243;DHT22;71844;51.528;4.442;2024-03-29T03:52:01;8.60;65.50
82243;DHT22;71844;51.528;4.442;2024-03-29T03:54:28;8.50;66.50
82243;DHT22;71844;51.528;4.442;2024-03-29T03:56:55;8.40;67.00
82243;DHT22;71844;51.528;4.442;2024-03-29T03:59:21;8.30;67.90
82243;DHT22;71844;51.528;4.442;2024-03-29T04:01:46;8.30;68.30
82243;DHT22;71844;51.528;4.442;2024-03-29T04:04:12;8.20;68.60
82243;DHT22;71844;51.528;4.442;2024-03-29T04:06:38;8.20;68.50
82243;DHT22;71844;51.528;4.442;2024-03-29T04:09:08;8.10;68.60
82243;DHT22;71844;51.528;4.442;2024-03-29T04:11:34;8.10;69.20
82243;DHT22;71844;51.528;4.442;2024-03-29T04:14:00;8.10;69.90
82243;DHT22;71844;51.528;4.442;2024-03-29T04:16:26;8.00;70.00
82243;DHT22;71844;51.528;4.442;2024-03-29T04:18:52;8.00;70.30
82243;DHT22;71844;51.528;4.442;2024-03-29T04:21:18;8.00;70.50
82243;DHT22;71844;51.528;4.442;2024-03-29T04:23:43;8.00;71.20
82243;DHT22;71844;51.528;4.442;2024-03-29T04:26:09;8.00;70.80
82243;DHT22;71844;51.528;4.442;2024-03-29T04:28:35;8.00;70.80
82243;DHT22;71844;51.528;4.442;2024-03-29T04:31:01;8.00;71.10
82243;DHT22;71844;51.528;4.442;2024-03-29T04:33:27;8.00;71.40
82243;DHT22;71844;51.528;4.442;2024-03-29T04:35:58;7.90;71.60
82243;DHT22;71844;51.528;4.442;2024-03-29T04:38:24;8.00;71.70
82243;DHT22;71844;51.528;4.442;2024-03-29T04:40:52;7.90;71.90
82243;DHT22;71844;51.528;4.442;2024-03-29T04:43:19;7.90;72.10
82243;DHT22;71844;51.528;4.442;2024-03-29T04:45:45;7.90;73.60
82243;DHT22;71844;51.528;4.442;2024-03-29T04:48:11;7.90;72.70
82243;DHT22;71844;51.528;4.442;2024-03-29T04:50:38;7.90;72.40
82243;DHT22;71844;51.528;4.442;2024-03-29T04:53:04;7.90;72.90
82243;DHT22;71844;51.528;4.442;2024-03-29T04:55:30;7.80;73.40
82243;DHT22;71844;51.528;4.442;2024-03-29T04:57:56;7.80;73.40
82243;DHT22;71844;51.528;4.442;2024-03-29T05:00:24;7.80;73.60
82243;DHT22;71844;51.528;4.442;2024-03-29T05:02:50;7.80;73.80
82243;DHT22;71844;51.528;4.442;2024-03-29T05:05:19;7.80;73.90
82243;DHT22;71844;51.528;4.442;2024-03-29T05:07:48;7.80;74.00
82243;DHT22;71844;51.528;4.442;2024-03-29T05:10:14;7.80;74.70
82243;DHT22;71844;51.528;4.442;2024-03-29T05:12:41;7.80;74.90
82243;DHT22;71844;51.528;4.442;2024-03-29T05:15:07;7.80;74.60
82243;DHT22;71844;51.528;4.442;2024-03-29T05:17:33;7.80;75.00
82243;DHT22;71844;51.528;4.442;2024-03-29T05:19:59;7.80;74.90
82243;DHT22;71844;51.528;4.442;2024-03-29T05:22:25;7.80;75.20
82243;DHT22;71844;51.528;4.442;2024-03-29T05:24:53;7.80;75.40
82243;DHT22;71844;51.528;4.442;2024-03-29T05:27:20;7.80;75.10
82243;DHT22;71844;51.528;4.442;2024-03-29T05:29:46;7.80;75.50
82243;DHT22;71844;51.528;4.442;2024-03-29T05:32:11;7.80;75.80
82243;DHT22;71844;51.528;4.442;2024-03-29T05:34:37;7.80;75.70
82243;DHT22;71844;51.528;4.442;2024-03-29T05:37:03;7.80;76.10
82243;DHT22;71844;51.528;4.442;2024-03-29T05:39:30;7.70;76.30
82243;DHT22;71844;51.528;4.442;2024-03-29T05:41:56;7.80;76.40
82243;DHT22;71844;51.528;4.442;2024-03-29T05:44:23;7.70;76.70
82243;DHT22;71844;51.528;4.442;2024-03-29T05:46:49;7.80;76.60
82243;DHT22;71844;51.528;4.442;2024-03-29T05:49:15;7.80;77.00
82243;DHT22;71844;51.528;4.442;2024-03-29T05:51:43;7.70;76.90
82243;DHT22;71844;51.528;4.442;2024-03-29T05:54:12;7.70;77.10
82243;DHT22;71844;51.528;4.442;2024-03-29T05:56:38;7.70;77.40
82243;DHT22;71844;51.528;4.442;2024-03-29T05:59:04;7.70;77.50
82243;DHT22;71844;51.528;4.442;2024-03-29T06:01:30;7.70;77.30
82243;DHT22;71844;51.528;4.442;2024-03-29T06:03:56;7.70;77.40
82243;DHT22;71844;51.528;4.442;2024-03-29T06:06:32;7.70;77.30
82243;DHT22;71844;51.528;4.442;2024-03-29T06:09:00;7.70;77.90
82243;DHT22;71844;51.528;4.442;2024-03-29T06:11:26;7.70;77.90
82243;DHT22;71844;51.528;4.442;2024-03-29T06:13:52;7.70;78.10
82243;DHT22;71844;51.528;4.442;2024-03-29T06:16:26;7.70;78.00
82243;DHT22;71844;51.528;4.442;2024-03-29T06:19:10;7.70;78.30
82243;DHT22;71844;51.528;4.442;2024-03-29T06:21:36;7.70;78.50
82243;DHT22;71844;51.528;4.442;2024-03-29T06:24:07;7.70;78.20
82243;DHT22;71844;51.528;4.442;2024-03-29T06:26:34;7.70;78.40
82243;DHT22;71844;51.528;4.442;2024-03-29T06:29:03;7.80;78.30
82243;DHT22;71844;51.528;4.442;2024-03-29T06:31:28;7.80;78.50
82243;DHT22;71844;51.528;4.442;2024-03-29T06:33:58;7.80;78.90
82243;DHT22;71844;51.528;4.442;2024-03-29T06:36:24;7.80;78.60
82243;DHT22;71844;51.528;4.442;2024-03-29T06:38:51;7.90;78.50
82243;DHT22;71844;51.528;4.442;2024-03-29T06:41:17;7.90;78.70
82243;DHT22;71844;51.528;4.442;2024-03-29T06:43:43;8.00;78.70
82243;DHT22;71844;51.528;4.442;2024-03-29T06:46:13;8.00;78.50
82243;DHT22;71844;51.528;4.442;2024-03-29T06:48:43;8.00;78.70
82243;DHT22;71844;51.528;4.442;2024-03-29T06:51:11;8.10;78.60
82243;DHT22;71844;51.528;4.442;2024-03-29T06:53:38;8.10;78.80
82243;DHT22;71844;51.528;4.442;2024-03-29T06:56:07;8.20;79.00
82243;DHT22;71844;51.528;4.442;2024-03-29T06:58:33;8.20;78.80
82243;DHT22;71844;51.528;4.442;2024-03-29T07:00:59;8.30;79.00
82243;DHT22;71844;51.528;4.442;2024-03-29T07:03:25;8.40;79.10
82243;DHT22;71844;51.528;4.442;2024-03-29T07:05:51;8.50;78.80
82243;DHT22;71844;51.528;4.442;2024-03-29T07:08:17;8.50;78.70
82243;DHT22;71844;51.528;4.442;2024-03-29T07:10:42;8.50;78.70
82243;DHT22;71844;51.528;4.442;2024-03-29T07:13:08;8.50;78.70
82243;DHT22;71844;51.528;4.442;2024-03-29T07:15:35;8.50;78.80
82243;DHT22;71844;51.528;4.442;2024-03-29T07:18:01;8.50;78.60
82243;DHT22;71844;51.528;4.442;2024-03-29T07:20:30;8.50;78.80
82243;DHT22;71844;51.528;4.442;2024-03-29T07:22:59;8.50;78.90
82243;DHT22;71844;51.528;4.442;2024-03-29T07:25:25;8.50;78.80
82243;DHT22;71844;51.528;4.442;2024-03-29T07:27:52;8.50;78.90
82243;DHT22;71844;51.528;4.442;2024-03-29T07:30:18;8.50;79.10
82243;DHT22;71844;51.528;4.442;2024-03-29T07:32:44;8.60;79.10
82243;DHT22;71844;51.528;4.442;2024-03-29T07:35:10;8.60;79.10
82243;DHT22;71844;51.528;4.442;2024-03-29T07:37:36;8.70;79.10
82243;DHT22;71844;51.528;4.442;2024-03-29T07:40:02;8.70;79.10
82243;DHT22;71844;51.528;4.442;2024-03-29T07:42:29;8.70;79.00
82243;DHT22;71844;51.528;4.442;2024-03-29T07:44:55;8.80;78.90
82243;DHT22;71844;51.528;4.442;2024-03-29T07:47:21;8.80;78.80
82243;DHT22;71844;51.528;4.442;2024-03-29T07:49:49;8.90;78.70
82243;DHT22;71844;51.528;4.442;2024-03-29T07:52:15;8.90;78.70
82243;DHT22;71844;51.528;4.442;2024-03-29T07:54:42;8.90;78.60
82243;DHT22;71844;51.528;4.442;2024-03-29T07:57:08;8.90;78.40
82243;DHT22;71844;51.528;4.442;2024-03-29T07:59:34;8.90;78.50
82243;DHT22;71844;51.528;4.442;2024-03-29T08:02:00;8.90;78.50
82243;DHT22;71844;51.528;4.442;2024-03-29T08:04:28;9.00;78.40
82243;DHT22;71844;51.528;4.442;2024-03-29T08:06:53;9.00;78.50
82243;DHT22;71844;51.528;4.442;2024-03-29T08:09:20;9.00;78.80
82243;DHT22;71844;51.528;4.442;2024-03-29T08:11:46;9.10;78.80
82243;DHT22;71844;51.528;4.442;2024-03-29T08:14:12;9.20;78.50
82243;DHT22;71844;51.528;4.442;2024-03-29T08:16:38;9.30;78.50
82243;DHT22;71844;51.528;4.442;2024-03-29T08:19:04;9.40;78.50
82243;DHT22;71844;51.528;4.442;2024-03-29T08:21:29;9.50;78.40
82243;DHT22;71844;51.528;4.442;2024-03-29T08:23:55;9.60;78.10
82243;DHT22;71844;51.528;4.442;2024-03-29T08:26:22;9.70;78.00
82243;DHT22;71844;51.528;4.442;2024-03-29T08:28:48;9.80;77.90
82243;DHT22;71844;51.528;4.442;2024-03-29T08:31:15;10.00;77.50
82243;DHT22;71844;51.528;4.442;2024-03-29T08:33:41;10.20;77.30
82243;DHT22;71844;51.528;4.442;2024-03-29T08:36:09;10.30;76.90
82243;DHT22;71844;51.528;4.442;2024-03-29T08:38:40;10.40;76.20
82243;DHT22;71844;51.528;4.442;2024-03-29T08:41:08;10.50;75.90
82243;DHT22;71844;51.528;4.442;2024-03-29T08:43:35;10.50;76.00
82243;DHT22;71844;51.528;4.442;2024-03-29T08:46:01;10.70;75.80
82243;DHT22;71844;51.528;4.442;2024-03-29T08:48:27;10.70;75.10
82243;DHT22;71844;51.528;4.442;2024-03-29T08:50:54;10.80;75.10
82243;DHT22;71844;51.528;4.442;2024-03-29T08:53:24;11.00;75.10
82243;DHT22;71844;51.528;4.442;2024-03-29T08:55:52;11.00;74.50
82243;DHT22;71844;51.528;4.442;2024-03-29T08:58:18;11.10;74.10
82243;DHT22;71844;51.528;4.442;2024-03-29T09:00:56;11.10;73.80
82243;DHT22;71844;51.528;4.442;2024-03-29T09:03:23;11.10;73.70
82243;DHT22;71844;51.528;4.442;2024-03-29T09:05:49;11.20;73.80
82243;DHT22;71844;51.528;4.442;2024-03-29T09:08:17;11.20;73.30
82243;DHT22;71844;51.528;4.442;2024-03-29T09:10:43;11.20;73.30
82243;DHT22;71844;51.528;4.442;2024-03-29T09:13:09;11.30;73.00
82243;DHT22;71844;51.528;4.442;2024-03-29T09:15:36;11.30;72.90
82243;DHT22;71844;51.528;4.442;2024-03-29T09:18:02;11.20;72.60
82243;DHT22;71844;51.528;4.442;2024-03-29T09:20:38;11.10;72.60
82243;DHT22;71844;51.528;4.442;2024-03-29T09:23:04;11.10;72.60
82243;DHT22;71844;51.528;4.442;2024-03-29T09:25:31;11.10;72.70
82243;DHT22;71844;51.528;4.442;2024-03-29T09:27:57;11.10;72.70
82243;DHT22;71844;51.528;4.442;2024-03-29T09:30:23;11.10;72.50
82243;DHT22;71844;51.528;4.442;2024-03-29T09:32:49;11.10;72.50
82243;DHT22;71844;51.528;4.442;2024-03-29T09:35:24;11.10;72.40
82243;DHT22;71844;51.528;4.442;2024-03-29T09:37:50;11.10;72.50
82243;DHT22;71844;51.528;4.442;2024-03-29T09:40:16;11.20;72.70
82243;DHT22;71844;51.528;4.442;2024-03-29T09:42:44;11.30;72.60
82243;DHT22;71844;51.528;4.442;2024-03-29T09:45:11;11.50;72.40
82243;DHT22;71844;51.528;4.442;2024-03-29T09:47:37;11.70;72.70
82243;DHT22;71844;51.528;4.442;2024-03-29T09:50:04;12.20;73.50
82243;DHT22;71844;51.528;4.442;2024-03-29T09:52:33;12.90;72.50
82243;DHT22;71844;51.528;4.442;2024-03-29T09:55:00;13.50;69.90
82243;DHT22;71844;51.528;4.442;2024-03-29T09:57:26;14.20;70.30
82243;DHT22;71844;51.528;4.442;2024-03-29T09:59:56;14.70;69.40
82243;DHT22;71844;51.528;4.442;2024-03-29T10:02:27;15.10;67.70
82243;DHT22;71844;51.528;4.442;2024-03-29T10:04:55;15.10;65.70
82243;DHT22;71844;51.528;4.442;2024-03-29T10:07:24;15.20;65.70
82243;DHT22;71844;51.528;4.442;2024-03-29T10:09:50;15.60;65.30
82243;DHT22;71844;51.528;4.442;2024-03-29T10:12:16;16.10;64.40
82243;DHT22;71844;51.528;4.442;2024-03-29T10:14:47;16.50;63.10
82243;DHT22;71844;51.528;4.442;2024-03-29T10:17:20;16.70;61.10
82243;DHT22;71844;51.528;4.442;2024-03-29T10:19:46;16.70;60.30
82243;DHT22;71844;51.528;4.442;2024-03-29T10:22:13;16.30;59.30
82243;DHT22;71844;51.528;4.442;2024-03-29T10:24:39;16.10;59.10
82243;DHT22;71844;51.528;4.442;2024-03-29T10:27:05;15.80;58.50
82243;DHT22;71844;51.528;4.442;2024-03-29T10:29:31;15.50;57.70
82243;DHT22;71844;51.528;4.442;2024-03-29T10:31:57;15.40;58.10
82243;DHT22;71844;51.528;4.442;2024-03-29T10:34:26;15.60;57.70
82243;DHT22;71844;51.528;4.442;2024-03-29T10:36:53;15.70;57.00
82243;DHT22;71844;51.528;4.442;2024-03-29T10:39:19;15.80;56.80
82243;DHT22;71844;51.528;4.442;2024-03-29T10:41:47;16.00;56.40
82243;DHT22;71844;51.528;4.442;2024-03-29T10:44:13;16.00;55.40
82243;DHT22;71844;51.528;4.442;2024-03-29T10:46:41;16.10;55.90
82243;DHT22;71844;51.528;4.442;2024-03-29T10:49:10;16.20;55.30
82243;DHT22;71844;51.528;4.442;2024-03-29T10:51:41;16.20;55.10
82243;DHT22;71844;51.528;4.442;2024-03-29T10:54:11;16.00;54.90
82243;DHT22;71844;51.528;4.442;2024-03-29T10:56:37;15.80;55.40
82243;DHT22;71844;51.528;4.442;2024-03-29T11:01:44;15.80;54.90
82243;DHT22;71844;51.528;4.442;2024-03-29T11:04:22;15.80;55.20
82243;DHT22;71844;51.528;4.442;2024-03-29T11:06:54;15.70;54.90
82243;DHT22;71844;51.528;4.442;2024-03-29T11:09:27;15.60;55.30
82243;DHT22;71844;51.528;4.442;2024-03-29T11:11:56;15.60;55.30
82243;DHT22;71844;51.528;4.442;2024-03-29T11:14:31;15.60;55.60
82243;DHT22;71844;51.528;4.442;2024-03-29T11:16:59;15.70;55.50
82243;DHT22;71844;51.528;4.442;2024-03-29T11:19:24;15.90;55.50
82243;DHT22;71844;51.528;4.442;2024-03-29T11:21:52;16.00;55.40
82243;DHT22;71844;51.528;4.442;2024-03-29T11:24:18;16.10;55.20
82243;DHT22;71844;51.528;4.442;2024-03-29T11:26:47;16.20;55.00
82243;DHT22;71844;51.528;4.442;2024-03-29T11:29:20;16.30;55.00
82243;DHT22;71844;51.528;4.442;2024-03-29T11:31:47;16.30;53.80
82243;DHT22;71844;51.528;4.442;2024-03-29T11:34:18;16.20;54.20
82243;DHT22;71844;51.528;4.442;2024-03-29T11:36:45;16.20;54.80
82243;DHT22;71844;51.528;4.442;2024-03-29T11:39:20;16.50;54.70
82243;DHT22;71844;51.528;4.442;2024-03-29T11:41:47;16.50;53.50
82243;DHT22;71844;51.528;4.442;2024-03-29T11:44:14;16.30;53.80
82243;DHT22;71844;51.528;4.442;2024-03-29T11:46:44;16.10;53.80
82243;DHT22;71844;51.528;4.442;2024-03-29T11:49:10;16.00;53.70
82243;DHT22;71844;51.528;4.442;2024-03-29T11:51:37;16.10;53.70
82243;DHT22;71844;51.528;4.442;2024-03-29T11:54:03;16.00;53.30
82243;DHT22;71844;51.528;4.442;2024-03-29T11:56:28;16.00;53.40
82243;DHT22;71844;51.528;4.442;2024-03-29T11:58:54;16.00;53.60
82243;DHT22;71844;51.528;4.442;2024-03-29T12:01:25;16.10;53.70
82243;DHT22;71844;51.528;4.442;2024-03-29T12:03:52;16.30;53.80
82243;DHT22;71844;51.528;4.442;2024-03-29T12:06:18;16.70;53.40
82243;DHT22;71844;51.528;4.442;2024-03-29T12:08:44;17.10;52.90
82243;DHT22;71844;51.528;4.442;2024-03-29T12:11:11;17.50;52.40
82243;DHT22;71844;51.528;4.442;2024-03-29T12:13:37;17.60;51.80
82243;DHT22;71844;51.528;4.442;2024-03-29T12:16:04;17.70;51.20
82243;DHT22;71844;51.528;4.442;2024-03-29T12:18:30;17.80;51.10
82243;DHT22;71844;51.528;4.442;2024-03-29T12:20:57;18.00;50.70
82243;DHT22;71844;51.528;4.442;2024-03-29T12:23:23;18.10;50.70
82243;DHT22;71844;51.528;4.442;2024-03-29T12:25:51;18.30;50.50
82243;DHT22;71844;51.528;4.442;2024-03-29T12:28:18;18.40;49.80
82243;DHT22;71844;51.528;4.442;2024-03-29T12:30:45;18.40;49.50
82243;DHT22;71844;51.528;4.442;2024-03-29T12:33:14;18.30;48.90
82243;DHT22;71844;51.528;4.442;2024-03-29T12:35:44;18.20;48.40
82243;DHT22;71844;51.528;4.442;2024-03-29T12:38:13;18.10;48.50
82243;DHT22;71844;51.528;4.442;2024-03-29T12:40:43;18.20;47.70
82243;DHT22;71844;51.528;4.442;2024-03-29T12:43:10;18.20;48.20
82243;DHT22;71844;51.528;4.442;2024-03-29T12:45:40;18.20;48.10
82243;DHT22;71844;51.528;4.442;2024-03-29T12:48:14;18.20;47.40
82243;DHT22;71844;51.528;4.442;2024-03-29T12:50:42;18.20;47.30
82243;DHT22;71844;51.528;4.442;2024-03-29T12:53:09;18.30;47.60
82243;DHT22;71844;51.528;4.442;2024-03-29T12:55:36;18.50;47.60
82243;DHT22;71844;51.528;4.442;2024-03-29T12:58:05;18.70;47.20
82243;DHT22;71844;51.528;4.442;2024-03-29T13:00:34;18.80;46.70
82243;DHT22;71844;51.528;4.442;2024-03-29T13:03:00;18.80;46.30
82243;DHT22;71844;51.528;4.442;2024-03-29T13:05:26;18.60;45.90
82243;DHT22;71844;51.528;4.442;2024-03-29T13:07:53;18.60;46.20
82243;DHT22;71844;51.528;4.442;2024-03-29T13:10:19;18.70;46.10
82243;DHT22;71844;51.528;4.442;2024-03-29T13:12:47;18.70;45.90
82243;DHT22;71844;51.528;4.442;2024-03-29T13:15:23;18.70;46.10
82243;DHT22;71844;51.528;4.442;2024-03-29T13:17:55;18.70;46.00
82243;DHT22;71844;51.528;4.442;2024-03-29T13:20:23;18.70;46.10
82243;DHT22;71844;51.528;4.442;2024-03-29T13:22:50;18.70;46.20
82243;DHT22;71844;51.528;4.442;2024-03-29T13:25:18;18.90;46.10
82243;DHT22;71844;51.528;4.442;2024-03-29T13:27:46;19.00;45.60
82243;DHT22;71844;51.528;4.442;2024-03-29T13:30:12;18.90;45.40
82243;DHT22;71844;51.528;4.442;2024-03-29T13:32:39;18.70;45.10
82243;DHT22;71844;51.528;4.442;2024-03-29T13:35:11;18.50;45.00
82243;DHT22;71844;51.528;4.442;2024-03-29T13:37:38;18.30;44.60
82243;DHT22;71844;51.528;4.442;2024-03-29T13:40:12;18.10;44.50
82243;DHT22;71844;51.528;4.442;2024-03-29T13:42:38;18.10;44.40
82243;DHT22;71844;51.528;4.442;2024-03-29T13:45:06;18.10;44.40
82243;DHT22;71844;51.528;4.442;2024-03-29T13:47:33;18.10;44.50
82243;DHT22;71844;51.528;4.442;2024-03-29T13:49:59;18.20;44.40
82243;DHT22;71844;51.528;4.442;2024-03-29T13:52:25;18.30;44.30
82243;DHT22;71844;51.528;4.442;2024-03-29T13:54:53;18.40;44.30
82243;DHT22;71844;51.528;4.442;2024-03-29T13:57:19;18.50;44.40
82243;DHT22;71844;51.528;4.442;2024-03-29T13:59:46;18.80;44.30
82243;DHT22;71844;51.528;4.442;2024-03-29T14:02:12;19.00;44.00
82243;DHT22;71844;51.528;4.442;2024-03-29T14:04:43;19.00;43.70
82243;DHT22;71844;51.528;4.442;2024-03-29T14:07:10;18.80;43.80
82243;DHT22;71844;51.528;4.442;2024-03-29T14:09:44;18.50;44.10
82243;DHT22;71844;51.528;4.442;2024-03-29T14:12:11;18.30;44.30
82243;DHT22;71844;51.528;4.442;2024-03-29T14:14:37;18.10;44.60
82243;DHT22;71844;51.528;4.442;2024-03-29T14:19:41;17.70;45.00
82243;DHT22;71844;51.528;4.442;2024-03-29T14:22:07;17.70;45.30
82243;DHT22;71844;51.528;4.442;2024-03-29T14:24:34;17.60;44.80
82243;DHT22;71844;51.528;4.442;2024-03-29T14:27:03;17.50;44.90
82243;DHT22;71844;51.528;4.442;2024-03-29T14:29:38;17.40;44.90
82243;DHT22;71844;51.528;4.442;2024-03-29T14:32:04;17.30;44.80
82243;DHT22;71844;51.528;4.442;2024-03-29T14:34:30;17.20;45.00
82243;DHT22;71844;51.528;4.442;2024-03-29T14:37:04;17.20;44.90
82243;DHT22;71844;51.528;4.442;2024-03-29T14:39:30;17.10;45.00
82243;DHT22;71844;51.528;4.442;2024-03-29T14:41:56;17.00;45.10
82243;DHT22;71844;51.528;4.442;2024-03-29T14:44:24;16.90;45.20
82243;DHT22;71844;51.528;4.442;2024-03-29T14:46:50;16.90;45.40
82243;DHT22;71844;51.528;4.442;2024-03-29T14:49:16;16.80;45.60
82243;DHT22;71844;51.528;4.442;2024-03-29T14:51:43;16.80;45.80
82243;DHT22;71844;51.528;4.442;2024-03-29T14:54:10;16.80;45.70
82243;DHT22;71844;51.528;4.442;2024-03-29T14:56:36;16.70;45.90
82243;DHT22;71844;51.528;4.442;2024-03-29T14:59:04;16.80;46.00
82243;DHT22;71844;51.528;4.442;2024-03-29T15:01:31;17.00;45.90
82243;DHT22;71844;51.528;4.442;2024-03-29T15:03:58;17.20;45.80
82243;DHT22;71844;51.528;4.442;2024-03-29T15:06:24;17.20;45.60
82243;DHT22;71844;51.528;4.442;2024-03-29T15:08:54;17.30;45.70
82243;DHT22;71844;51.528;4.442;2024-03-29T15:11:20;17.40;45.80
82243;DHT22;71844;51.528;4.442;2024-03-29T15:13:45;17.70;45.90
82243;DHT22;71844;51.528;4.442;2024-03-29T15:16:11;17.90;45.80
82243;DHT22;71844;51.528;4.442;2024-03-29T15:18:37;17.90;45.70
82243;DHT22;71844;51.528;4.442;2024-03-29T15:21:04;17.80;45.90
82243;DHT22;71844;51.528;4.442;2024-03-29T15:23:30;17.70;46.10
82243;DHT22;71844;51.528;4.442;2024-03-29T15:25:57;17.50;46.10
82243;DHT22;71844;51.528;4.442;2024-03-29T15:28:25;17.20;46.40
82243;DHT22;71844;51.528;4.442;2024-03-29T15:31:14;17.10;46.80
82243;DHT22;71844;51.528;4.442;2024-03-29T15:33:46;17.00;47.00
82243;DHT22;71844;51.528;4.442;2024-03-29T15:36:13;16.90;47.20
82243;DHT22;71844;51.528;4.442;2024-03-29T15:38:39;16.80;47.50
82243;DHT22;71844;51.528;4.442;2024-03-29T15:41:05;16.60;47.80
82243;DHT22;71844;51.528;4.442;2024-03-29T15:43:33;16.60;48.10
82243;DHT22;71844;51.528;4.442;2024-03-29T15:46:01;16.60;48.20